EZY46AM EGGD-LEAL
Flight info
| Callsign | EZY46AM |
|---|---|
| Flight time | 2h 14m |
| Altitude | 36000 |
| Route | EXMOR N92 DAWLY DCT BHD DCT SALCO/N0454F370 DCT NENEM P152 PPN/N0452F380 M176 CLS |
| Aircraft | A319/M-SDE3FGHIRWY/LB1 |
Departure
| Time | 2026-05-04 08:35 |
|---|---|
| Airport | Bristol Airport (EGGD) |
Arrival
| Time | 2026-05-04 10:49 |
|---|---|
| Airport | Alicante-Elche Miguel Hernández Airport (LEAL) |
| Time | Latitude | Longitude | Altitude | Speed | Heading |
|---|---|---|---|---|---|
| 2026-05-04 07:40 | 51.38550 | -2.71595 | 614 ft | 0 kts | 356° |
| 2026-05-04 08:24 | 51.38492 | -2.71546 | 630 ft | 0 kts | 265° |
| 2026-05-04 08:27 | 51.38479 | -2.71583 | 616 ft | 1 kts | 211° |
| 2026-05-04 08:28 | 51.38472 | -2.71586 | 617 ft | 0 kts | 196° |
| 2026-05-04 08:28 | 51.38467 | -2.71587 | 618 ft | 3 kts | 192° |
| 2026-05-04 08:28 | 51.38439 | -2.71625 | 629 ft | 7 kts | 248° |
| 2026-05-04 08:28 | 51.38434 | -2.71727 | 617 ft | 11 kts | 267° |
| 2026-05-04 08:29 | 51.38430 | -2.71873 | 617 ft | 15 kts | 267° |
| 2026-05-04 08:29 | 51.38429 | -2.72062 | 616 ft | 19 kts | 266° |
| 2026-05-04 08:29 | 51.38420 | -2.72277 | 616 ft | 20 kts | 266° |
| 2026-05-04 08:31 | 51.38354 | -2.73317 | 630 ft | 5 kts | 226° |
| 2026-05-04 08:33 | 51.38277 | -2.71586 | 642 ft | 153 kts | 86° |
| 2026-05-04 08:33 | 51.38316 | -2.69751 | 1165 ft | 173 kts | 86° |
| 2026-05-04 08:35 | 51.37632 | -2.53268 | 5725 ft | 268 kts | 133° |
| 2026-05-04 08:35 | 51.36082 | -2.51654 | 5946 ft | 269 kts | 161° |
| 2026-05-04 08:35 | 51.34229 | -2.51384 | 6001 ft | 271 kts | 188° |
| 2026-05-04 08:35 | 51.32491 | -2.52502 | 6005 ft | 273 kts | 215° |
| 2026-05-04 08:37 | 51.30359 | -2.70029 | 6008 ft | 278 kts | 266° |
| 2026-05-04 08:37 | 51.30252 | -2.73112 | 6013 ft | 278 kts | 266° |
| 2026-05-04 08:37 | 51.30141 | -2.76193 | 6008 ft | 278 kts | 266° |
| 2026-05-04 08:38 | 51.30030 | -2.79276 | 6009 ft | 278 kts | 266° |
| 2026-05-04 08:38 | 51.29917 | -2.82358 | 6008 ft | 278 kts | 266° |
| 2026-05-04 08:38 | 51.29802 | -2.85437 | 6008 ft | 278 kts | 266° |
| 2026-05-04 08:40 | 51.27199 | -3.06305 | 6002 ft | 277 kts | 242° |
| 2026-05-04 08:40 | 51.26334 | -3.09059 | 6004 ft | 277 kts | 243° |
| 2026-05-04 08:40 | 51.25471 | -3.11816 | 6002 ft | 278 kts | 243° |
| 2026-05-04 08:41 | 51.24608 | -3.14569 | 6003 ft | 278 kts | 243° |
| 2026-05-04 08:41 | 51.23744 | -3.17327 | 6000 ft | 278 kts | 243° |
| 2026-05-04 08:41 | 51.22878 | -3.20082 | 6005 ft | 278 kts | 242° |
| 2026-05-04 08:41 | 51.22008 | -3.22833 | 6003 ft | 278 kts | 242° |
| 2026-05-04 08:42 | 51.21136 | -3.25588 | 6003 ft | 278 kts | 242° |
| 2026-05-04 08:42 | 51.20263 | -3.28336 | 6001 ft | 278 kts | 242° |
| 2026-05-04 08:42 | 51.19389 | -3.31089 | 6003 ft | 278 kts | 242° |
| 2026-05-04 08:42 | 51.18293 | -3.33608 | 6003 ft | 277 kts | 225° |
| 2026-05-04 08:43 | 51.16777 | -3.35459 | 6001 ft | 275 kts | 206° |
| 2026-05-04 08:43 | 51.14977 | -3.36450 | 6171 ft | 280 kts | 187° |
| 2026-05-04 08:43 | 51.13038 | -3.36762 | 7239 ft | 278 kts | 184° |
| 2026-05-04 08:43 | 51.11112 | -3.37084 | 8334 ft | 279 kts | 185° |
| 2026-05-04 08:44 | 51.09174 | -3.37430 | 9361 ft | 282 kts | 185° |
| 2026-05-04 08:44 | 51.07213 | -3.37787 | 10275 ft | 288 kts | 185° |
| 2026-05-04 08:46 | 50.91032 | -3.40642 | 15035 ft | 352 kts | 185° |
| 2026-05-04 08:46 | 50.88589 | -3.41062 | 15800 ft | 355 kts | 185° |
| 2026-05-04 08:46 | 50.86127 | -3.41482 | 16566 ft | 357 kts | 185° |
| 2026-05-04 08:46 | 50.83651 | -3.41907 | 17331 ft | 359 kts | 185° |
| 2026-05-04 08:47 | 50.81158 | -3.42336 | 18098 ft | 362 kts | 185° |
| 2026-05-04 08:47 | 50.78648 | -3.42769 | 18785 ft | 364 kts | 185° |
| 2026-05-04 08:47 | 50.76122 | -3.43203 | 19454 ft | 366 kts | 185° |
| 2026-05-04 08:47 | 50.73584 | -3.43639 | 20126 ft | 368 kts | 186° |
| 2026-05-04 08:48 | 50.71030 | -3.44078 | 20799 ft | 370 kts | 186° |
| 2026-05-04 08:48 | 50.68457 | -3.44519 | 21471 ft | 373 kts | 186° |
| 2026-05-04 08:48 | 50.65873 | -3.44960 | 22127 ft | 375 kts | 186° |
| 2026-05-04 08:48 | 50.63270 | -3.45402 | 22753 ft | 377 kts | 186° |
| 2026-05-04 08:49 | 50.60655 | -3.45846 | 23374 ft | 379 kts | 187° |
| 2026-05-04 08:50 | 50.44581 | -3.48571 | 26203 ft | 396 kts | 186° |
| 2026-05-04 08:50 | 50.41829 | -3.49032 | 26638 ft | 399 kts | 186° |
| 2026-05-04 08:51 | 50.39054 | -3.49473 | 27070 ft | 403 kts | 185° |
| 2026-05-04 08:51 | 50.36245 | -3.49761 | 27500 ft | 406 kts | 183° |
| 2026-05-04 08:51 | 50.33412 | -3.49922 | 27920 ft | 409 kts | 181° |
| 2026-05-04 08:51 | 50.30558 | -3.50018 | 28339 ft | 412 kts | 181° |
| 2026-05-04 08:52 | 50.27683 | -3.50103 | 28733 ft | 415 kts | 181° |
| 2026-05-04 08:52 | 50.24783 | -3.50201 | 29128 ft | 418 kts | 181° |
| 2026-05-04 08:52 | 50.21865 | -3.50323 | 29506 ft | 421 kts | 181° |
| 2026-05-04 08:52 | 50.18929 | -3.50471 | 29879 ft | 424 kts | 182° |
| 2026-05-04 08:53 | 50.15969 | -3.50640 | 30212 ft | 427 kts | 182° |
| 2026-05-04 08:54 | 49.94874 | -3.51820 | 32632 ft | 435 kts | 182° |
| 2026-05-04 08:55 | 49.91849 | -3.51981 | 33028 ft | 435 kts | 182° |
| 2026-05-04 08:55 | 49.88825 | -3.52136 | 33428 ft | 435 kts | 182° |
| 2026-05-04 08:55 | 49.85803 | -3.52293 | 33827 ft | 434 kts | 182° |
| 2026-05-04 08:55 | 49.82784 | -3.52455 | 34198 ft | 434 kts | 182° |
| 2026-05-04 08:57 | 49.61576 | -3.52169 | 35999 ft | 438 kts | 176° |
| 2026-05-04 09:01 | 49.19306 | -3.48956 | 36017 ft | 434 kts | 178° |
| 2026-05-04 09:01 | 49.13273 | -3.48515 | 36020 ft | 434 kts | 177° |
| 2026-05-04 09:02 | 49.07244 | -3.48071 | 36012 ft | 434 kts | 177° |
| 2026-05-04 09:02 | 49.01214 | -3.47641 | 36010 ft | 434 kts | 178° |
| 2026-05-04 09:03 | 48.95184 | -3.47215 | 36012 ft | 434 kts | 177° |
| 2026-05-04 09:03 | 48.89150 | -3.46768 | 36006 ft | 434 kts | 177° |
| 2026-05-04 09:04 | 48.84129 | -3.46405 | 36004 ft | 435 kts | 177° |
| 2026-05-04 09:04 | 48.78083 | -3.45981 | 36003 ft | 435 kts | 178° |
| 2026-05-04 09:05 | 48.72038 | -3.45555 | 36001 ft | 435 kts | 177° |
| 2026-05-04 09:05 | 48.65991 | -3.45124 | 36002 ft | 435 kts | 177° |
| 2026-05-04 09:06 | 48.59941 | -3.44693 | 35999 ft | 435 kts | 178° |
| 2026-05-04 09:08 | 48.35732 | -3.42983 | 36012 ft | 435 kts | 178° |
| 2026-05-04 09:08 | 48.29682 | -3.42554 | 36013 ft | 435 kts | 178° |
| 2026-05-04 09:09 | 48.23634 | -3.42130 | 36004 ft | 435 kts | 178° |
| 2026-05-04 09:09 | 48.17588 | -3.41713 | 36005 ft | 435 kts | 178° |
| 2026-05-04 09:10 | 48.11540 | -3.41291 | 36008 ft | 435 kts | 178° |
| 2026-05-04 09:10 | 48.05492 | -3.40868 | 36009 ft | 435 kts | 178° |
| 2026-05-04 09:11 | 47.99441 | -3.40452 | 36009 ft | 435 kts | 178° |
| 2026-05-04 09:11 | 47.93402 | -3.40030 | 36008 ft | 434 kts | 178° |
| 2026-05-04 09:12 | 47.87368 | -3.39616 | 36005 ft | 434 kts | 178° |
| 2026-05-04 09:14 | 47.63253 | -3.37963 | 36002 ft | 434 kts | 178° |
| 2026-05-04 09:14 | 47.57226 | -3.37552 | 36002 ft | 434 kts | 178° |
| 2026-05-04 09:15 | 47.51197 | -3.37139 | 36003 ft | 434 kts | 178° |
| 2026-05-04 09:15 | 47.45174 | -3.36727 | 36005 ft | 433 kts | 178° |
| 2026-05-04 09:17 | 47.18064 | -3.34896 | 36015 ft | 433 kts | 178° |
| 2026-05-04 09:18 | 47.12050 | -3.34497 | 36017 ft | 433 kts | 178° |
| 2026-05-04 09:18 | 47.06032 | -3.34092 | 36016 ft | 433 kts | 178° |
| 2026-05-04 09:19 | 47.00026 | -3.33686 | 36014 ft | 432 kts | 178° |
| 2026-05-04 09:19 | 46.94010 | -3.33286 | 36016 ft | 432 kts | 178° |
| 2026-05-04 09:20 | 46.88001 | -3.32892 | 36017 ft | 432 kts | 179° |
| 2026-05-04 09:20 | 46.81993 | -3.32505 | 36017 ft | 432 kts | 179° |
| 2026-05-04 09:21 | 46.75987 | -3.32100 | 36016 ft | 432 kts | 178° |
| 2026-05-04 09:21 | 46.69986 | -3.31691 | 36015 ft | 432 kts | 179° |
| 2026-05-04 09:22 | 46.63987 | -3.31294 | 36017 ft | 431 kts | 179° |
| 2026-05-04 09:22 | 46.57988 | -3.30899 | 36020 ft | 431 kts | 179° |
| 2026-05-04 09:23 | 46.51994 | -3.30506 | 36021 ft | 431 kts | 179° |
| 2026-05-04 09:23 | 46.46003 | -3.30122 | 36022 ft | 431 kts | 179° |
| 2026-05-04 09:25 | 46.22070 | -3.28564 | 36021 ft | 430 kts | 179° |
| 2026-05-04 09:26 | 46.16092 | -3.28169 | 36025 ft | 430 kts | 179° |
| 2026-05-04 09:26 | 46.10115 | -3.27779 | 36022 ft | 430 kts | 179° |
| 2026-05-04 09:27 | 46.04185 | -3.27393 | 36021 ft | 429 kts | 179° |
| 2026-05-04 09:27 | 45.98216 | -3.27012 | 36024 ft | 429 kts | 179° |
| 2026-05-04 09:28 | 45.92252 | -3.26626 | 36023 ft | 429 kts | 179° |
| 2026-05-04 09:28 | 45.86290 | -3.26249 | 36025 ft | 429 kts | 179° |
| 2026-05-04 09:29 | 45.80334 | -3.25881 | 36026 ft | 428 kts | 179° |
| 2026-05-04 09:29 | 45.74380 | -3.25499 | 36025 ft | 428 kts | 179° |
| 2026-05-04 09:30 | 45.68427 | -3.25114 | 36023 ft | 428 kts | 179° |
| 2026-05-04 09:30 | 45.62476 | -3.24732 | 36026 ft | 428 kts | 179° |
| 2026-05-04 09:31 | 45.56523 | -3.24359 | 36024 ft | 428 kts | 179° |
| 2026-05-04 09:31 | 45.50575 | -3.23988 | 36024 ft | 428 kts | 179° |
| 2026-05-04 09:32 | 45.44624 | -3.23608 | 36022 ft | 428 kts | 179° |
| 2026-05-04 09:34 | 45.20849 | -3.22118 | 36017 ft | 428 kts | 179° |
| 2026-05-04 09:34 | 45.14890 | -3.21746 | 36018 ft | 429 kts | 179° |
| 2026-05-04 09:35 | 45.08934 | -3.21365 | 36016 ft | 429 kts | 179° |
| 2026-05-04 09:35 | 45.02977 | -3.20999 | 36016 ft | 428 kts | 179° |
| 2026-05-04 09:37 | 44.79162 | -3.19527 | 36021 ft | 428 kts | 180° |
| 2026-05-04 09:38 | 44.73218 | -3.19160 | 36025 ft | 428 kts | 180° |
| 2026-05-04 09:38 | 44.67314 | -3.18799 | 36023 ft | 427 kts | 180° |
| 2026-05-04 09:39 | 44.61374 | -3.18442 | 36026 ft | 427 kts | 180° |
| 2026-05-04 09:39 | 44.55438 | -3.18086 | 36030 ft | 427 kts | 180° |
| 2026-05-04 09:40 | 44.49511 | -3.17723 | 36026 ft | 426 kts | 180° |
| 2026-05-04 09:40 | 44.43588 | -3.17351 | 36027 ft | 426 kts | 180° |
| 2026-05-04 09:42 | 44.19927 | -3.15914 | 36033 ft | 425 kts | 180° |
| 2026-05-04 09:43 | 44.14012 | -3.15556 | 36028 ft | 425 kts | 180° |
| 2026-05-04 09:43 | 44.08107 | -3.14955 | 36029 ft | 428 kts | 172° |
| 2026-05-04 09:44 | 44.05237 | -3.13793 | 36028 ft | 433 kts | 161° |
| 2026-05-04 09:44 | 44.02541 | -3.11892 | 36026 ft | 438 kts | 151° |
| 2026-05-04 09:46 | 43.83422 | -2.90607 | 36012 ft | 442 kts | 146° |
| 2026-05-04 09:46 | 43.78640 | -2.85256 | 36015 ft | 442 kts | 146° |
| 2026-05-04 09:47 | 43.73858 | -2.79909 | 36018 ft | 442 kts | 146° |
| 2026-05-04 09:49 | 43.54681 | -2.58597 | 36023 ft | 443 kts | 146° |
| 2026-05-04 09:51 | 43.38660 | -2.40937 | 36024 ft | 444 kts | 147° |
| 2026-05-04 09:51 | 43.33848 | -2.35650 | 36010 ft | 442 kts | 147° |
| 2026-05-04 09:52 | 43.29037 | -2.30379 | 36013 ft | 442 kts | 147° |
| 2026-05-04 09:52 | 43.24218 | -2.25119 | 36010 ft | 443 kts | 147° |
| 2026-05-04 09:53 | 43.19394 | -2.19867 | 36007 ft | 443 kts | 147° |
| 2026-05-04 09:53 | 43.14597 | -2.14649 | 36001 ft | 443 kts | 147° |
| 2026-05-04 09:54 | 43.09768 | -2.09400 | 35999 ft | 443 kts | 147° |
| 2026-05-04 09:54 | 43.04946 | -2.04169 | 35991 ft | 443 kts | 147° |
| 2026-05-04 09:55 | 43.00118 | -1.98942 | 35987 ft | 442 kts | 148° |
| 2026-05-04 09:55 | 42.95288 | -1.93737 | 35979 ft | 442 kts | 148° |
| 2026-05-04 09:56 | 42.90451 | -1.88540 | 35976 ft | 442 kts | 148° |
| 2026-05-04 09:56 | 42.85621 | -1.83348 | 35978 ft | 442 kts | 148° |
| 2026-05-04 09:57 | 42.80797 | -1.78161 | 35986 ft | 441 kts | 148° |
| 2026-05-04 09:57 | 42.75952 | -1.73051 | 35976 ft | 437 kts | 153° |
| 2026-05-04 09:58 | 42.70583 | -1.69711 | 35981 ft | 421 kts | 171° |
| 2026-05-04 09:58 | 42.64871 | -1.68314 | 35975 ft | 416 kts | 176° |
| 2026-05-04 10:00 | 42.41984 | -1.63237 | 35963 ft | 416 kts | 176° |
| 2026-05-04 10:04 | 42.02032 | -1.54468 | 35957 ft | 415 kts | 177° |
| 2026-05-04 10:04 | 41.96329 | -1.53225 | 35956 ft | 415 kts | 177° |
| 2026-05-04 10:05 | 41.90632 | -1.51991 | 35953 ft | 415 kts | 177° |
| 2026-05-04 10:05 | 41.84937 | -1.50763 | 35951 ft | 414 kts | 178° |
| 2026-05-04 10:06 | 41.79245 | -1.49531 | 35949 ft | 414 kts | 178° |
| 2026-05-04 10:06 | 41.76476 | -1.48926 | 35961 ft | 401 kts | 178° |
| 2026-05-04 10:06 | 41.73780 | -1.48328 | 35965 ft | 385 kts | 178° |
| 2026-05-04 10:08 | 41.59408 | -1.45233 | 35964 ft | 333 kts | 179° |
| 2026-05-04 10:08 | 41.57119 | -1.44754 | 35961 ft | 333 kts | 179° |
| 2026-05-04 10:08 | 41.52548 | -1.43777 | 35950 ft | 333 kts | 179° |
| 2026-05-04 10:09 | 41.47980 | -1.42796 | 35955 ft | 332 kts | 179° |
| 2026-05-04 10:09 | 41.43410 | -1.41815 | 35951 ft | 333 kts | 179° |
| 2026-05-04 10:10 | 41.38844 | -1.40843 | 35943 ft | 332 kts | 179° |
| 2026-05-04 10:10 | 41.34276 | -1.39875 | 35938 ft | 333 kts | 179° |
| 2026-05-04 10:11 | 41.29709 | -1.38899 | 35933 ft | 332 kts | 179° |
| 2026-05-04 10:11 | 41.25141 | -1.37930 | 35926 ft | 332 kts | 179° |
| 2026-05-04 10:12 | 41.20577 | -1.36958 | 35928 ft | 332 kts | 179° |
| 2026-05-04 10:12 | 41.16010 | -1.35977 | 35922 ft | 333 kts | 179° |
| 2026-05-04 10:13 | 41.11440 | -1.35013 | 35928 ft | 333 kts | 179° |
| 2026-05-04 10:13 | 41.06843 | -1.34049 | 35952 ft | 341 kts | 179° |
| 2026-05-04 10:14 | 41.02048 | -1.33054 | 35964 ft | 362 kts | 179° |
| 2026-05-04 10:16 | 40.83105 | -1.28955 | 35961 ft | 417 kts | 176° |
| 2026-05-04 10:16 | 40.80257 | -1.28172 | 35964 ft | 419 kts | 175° |
| 2026-05-04 10:16 | 40.74558 | -1.26521 | 35966 ft | 420 kts | 175° |
| 2026-05-04 10:17 | 40.68850 | -1.24910 | 35980 ft | 419 kts | 175° |
| 2026-05-04 10:19 | 40.45961 | -1.18718 | 36013 ft | 420 kts | 175° |
| 2026-05-04 10:19 | 40.40236 | -1.17169 | 36009 ft | 420 kts | 175° |
| 2026-05-04 10:20 | 40.34509 | -1.15633 | 36008 ft | 420 kts | 175° |
| 2026-05-04 10:20 | 40.28783 | -1.14098 | 35994 ft | 420 kts | 175° |
| 2026-05-04 10:21 | 40.23093 | -1.12569 | 35988 ft | 420 kts | 175° |
| 2026-05-04 10:21 | 40.17363 | -1.11034 | 35980 ft | 420 kts | 175° |
| 2026-05-04 10:22 | 40.08725 | -1.08721 | 35971 ft | 421 kts | 175° |
| 2026-05-04 10:23 | 40.02989 | -1.07193 | 35977 ft | 421 kts | 175° |
| 2026-05-04 10:25 | 39.80075 | -1.01117 | 34476 ft | 421 kts | 175° |
| 2026-05-04 10:25 | 39.77207 | -1.00360 | 34239 ft | 421 kts | 175° |
| 2026-05-04 10:25 | 39.74342 | -0.99600 | 33995 ft | 420 kts | 175° |
| 2026-05-04 10:25 | 39.71476 | -0.98836 | 33717 ft | 420 kts | 175° |
| 2026-05-04 10:26 | 39.68601 | -0.98168 | 33440 ft | 419 kts | 178° |
| 2026-05-04 10:26 | 39.65719 | -0.97665 | 33163 ft | 418 kts | 180° |
| 2026-05-04 10:26 | 39.62827 | -0.97272 | 32897 ft | 418 kts | 181° |
| 2026-05-04 10:26 | 39.59936 | -0.96924 | 32605 ft | 418 kts | 181° |
| 2026-05-04 10:27 | 39.57029 | -0.96573 | 31576 ft | 423 kts | 181° |
| 2026-05-04 10:27 | 39.54081 | -0.96197 | 30618 ft | 427 kts | 180° |
| 2026-05-04 10:27 | 39.51147 | -0.95787 | 29981 ft | 422 kts | 180° |
| 2026-05-04 10:27 | 39.48247 | -0.95370 | 29170 ft | 416 kts | 181° |
| 2026-05-04 10:28 | 39.45351 | -0.95242 | 27957 ft | 416 kts | 185° |
| 2026-05-04 10:28 | 39.42478 | -0.95206 | 26904 ft | 409 kts | 185° |
| 2026-05-04 10:28 | 39.39693 | -0.95206 | 26312 ft | 392 kts | 186° |
| 2026-05-04 10:28 | 39.37009 | -0.95217 | 25745 ft | 384 kts | 186° |
| 2026-05-04 10:29 | 39.34331 | -0.95240 | 25192 ft | 381 kts | 186° |
| 2026-05-04 10:29 | 39.31733 | -0.95255 | 24639 ft | 367 kts | 186° |
| 2026-05-04 10:29 | 39.29150 | -0.95267 | 24137 ft | 377 kts | 186° |
| 2026-05-04 10:29 | 39.26508 | -0.95280 | 23670 ft | 382 kts | 186° |
| 2026-05-04 10:30 | 39.23841 | -0.95280 | 23144 ft | 383 kts | 185° |
| 2026-05-04 10:30 | 39.21192 | -0.95270 | 22578 ft | 379 kts | 185° |
| 2026-05-04 10:30 | 39.18564 | -0.95257 | 22043 ft | 376 kts | 185° |
| 2026-05-04 10:30 | 39.15955 | -0.95241 | 21537 ft | 374 kts | 185° |
| 2026-05-04 10:31 | 39.13356 | -0.95227 | 20996 ft | 372 kts | 185° |
| 2026-05-04 10:31 | 39.10772 | -0.95217 | 20474 ft | 371 kts | 185° |
| 2026-05-04 10:32 | 38.95521 | -0.95196 | 17179 ft | 360 kts | 185° |
| 2026-05-04 10:33 | 38.93021 | -0.95191 | 16588 ft | 358 kts | 185° |
| 2026-05-04 10:33 | 38.90537 | -0.95186 | 16006 ft | 356 kts | 185° |
| 2026-05-04 10:33 | 38.88067 | -0.95180 | 15437 ft | 355 kts | 185° |
| 2026-05-04 10:33 | 38.85602 | -0.95172 | 14874 ft | 354 kts | 185° |
| 2026-05-04 10:34 | 38.83148 | -0.95163 | 14315 ft | 352 kts | 184° |
| 2026-05-04 10:34 | 38.80708 | -0.95153 | 13772 ft | 350 kts | 184° |
| 2026-05-04 10:34 | 38.78283 | -0.95146 | 13166 ft | 347 kts | 184° |
| 2026-05-04 10:34 | 38.75873 | -0.95140 | 12571 ft | 345 kts | 184° |
| 2026-05-04 10:35 | 38.73482 | -0.95137 | 11974 ft | 342 kts | 184° |
| 2026-05-04 10:35 | 38.71108 | -0.95133 | 11451 ft | 339 kts | 184° |
| 2026-05-04 10:35 | 38.68814 | -0.95125 | 11193 ft | 320 kts | 184° |
| 2026-05-04 10:35 | 38.66650 | -0.95116 | 10942 ft | 301 kts | 184° |
| 2026-05-04 10:36 | 38.64614 | -0.95107 | 10699 ft | 286 kts | 184° |
| 2026-05-04 10:36 | 38.62639 | -0.95100 | 10458 ft | 281 kts | 184° |
| 2026-05-04 10:36 | 38.60731 | -0.95091 | 10220 ft | 267 kts | 184° |
| 2026-05-04 10:36 | 38.58925 | -0.95083 | 9982 ft | 253 kts | 184° |
| 2026-05-04 10:37 | 38.57201 | -0.95078 | 9857 ft | 245 kts | 184° |
| 2026-05-04 10:37 | 38.55500 | -0.95080 | 9416 ft | 244 kts | 184° |
| 2026-05-04 10:37 | 38.53809 | -0.95083 | 8875 ft | 242 kts | 183° |
| 2026-05-04 10:37 | 38.52132 | -0.95083 | 8337 ft | 241 kts | 182° |
| 2026-05-04 10:39 | 38.42329 | -0.95067 | 5297 ft | 225 kts | 181° |
| 2026-05-04 10:39 | 38.41298 | -0.95064 | 5004 ft | 222 kts | 181° |
| 2026-05-04 10:39 | 38.39763 | -0.95061 | 4608 ft | 216 kts | 181° |
| 2026-05-04 10:40 | 38.38335 | -0.95057 | 4619 ft | 196 kts | 181° |
| 2026-05-04 10:40 | 38.37057 | -0.95053 | 4622 ft | 173 kts | 180° |
| 2026-05-04 10:40 | 38.35830 | -0.95044 | 4623 ft | 179 kts | 179° |
| 2026-05-04 10:40 | 38.34627 | -0.94637 | 4508 ft | 182 kts | 153° |
| 2026-05-04 10:41 | 38.33687 | -0.93577 | 4380 ft | 183 kts | 126° |
| 2026-05-04 10:41 | 38.33210 | -0.92089 | 4256 ft | 184 kts | 101° |
| 2026-05-04 10:41 | 38.33000 | -0.90487 | 4134 ft | 183 kts | 100° |
| 2026-05-04 10:41 | 38.32782 | -0.88899 | 4194 ft | 183 kts | 101° |
| 2026-05-04 10:42 | 38.32562 | -0.87304 | 4203 ft | 183 kts | 101° |
| 2026-05-04 10:42 | 38.32341 | -0.85708 | 4174 ft | 183 kts | 101° |
| 2026-05-04 10:42 | 38.32123 | -0.84113 | 4046 ft | 182 kts | 101° |
| 2026-05-04 10:42 | 38.31906 | -0.82526 | 3918 ft | 182 kts | 101° |
| 2026-05-04 10:43 | 38.31691 | -0.80947 | 3805 ft | 181 kts | 101° |
| 2026-05-04 10:44 | 38.30207 | -0.70166 | 2108 ft | 172 kts | 101° |
| 2026-05-04 10:45 | 38.30000 | -0.68666 | 1877 ft | 172 kts | 101° |
| 2026-05-04 10:45 | 38.29798 | -0.67203 | 1651 ft | 159 kts | 101° |
| 2026-05-04 10:45 | 38.29619 | -0.65906 | 1451 ft | 140 kts | 101° |
| 2026-05-04 10:45 | 38.29455 | -0.64723 | 1279 ft | 133 kts | 101° |
| 2026-05-04 10:46 | 38.29295 | -0.63576 | 1116 ft | 131 kts | 101° |
| 2026-05-04 10:46 | 38.29138 | -0.62438 | 951 ft | 131 kts | 102° |
| 2026-05-04 10:46 | 38.28989 | -0.61324 | 753 ft | 131 kts | 101° |
| 2026-05-04 10:46 | 38.28833 | -0.60144 | 644 ft | 136 kts | 101° |
| 2026-05-04 10:47 | 38.28661 | -0.58972 | 454 ft | 130 kts | 103° |
| 2026-05-04 10:47 | 38.28501 | -0.57806 | 275 ft | 133 kts | 101° |
| 2026-05-04 10:47 | 38.28335 | -0.56669 | 123 ft | 120 kts | 100° |
| 2026-05-04 10:47 | 38.28217 | -0.55810 | 104 ft | 79 kts | 100° |
| 2026-05-04 10:49 | 38.28165 | -0.54185 | 55 ft | 11 kts | 265° |
| 2026-05-04 10:49 | 38.28180 | -0.54278 | 52 ft | 11 kts | 280° |
| 2026-05-04 10:50 | 38.28194 | -0.54389 | 55 ft | 15 kts | 279° |
| 2026-05-04 10:51 | 38.28447 | -0.55602 | 96 ft | 12 kts | 9° |
| 2026-05-04 10:52 | 38.28489 | -0.55525 | 94 ft | 6 kts | 74° |
| 2026-05-04 10:52 | 38.28526 | -0.55515 | 95 ft | 5 kts | 3° |
| 2026-05-04 10:52 | 38.28564 | -0.55506 | 92 ft | 8 kts | 12° |
| 2026-05-04 10:54 | 38.28571 | -0.55504 | 91 ft | 0 kts | 11° |